KFAM/FAM METAR and TAF weather

Enter ICAO airport designator
Station Type Date Time Source
KFAM METAR 2020/07/13 13:56 UTC NOAA

KFAM 131356Z AUTO 00000KT 10SM CLR 24/21 A3003 RMK AO2 SLP167 T02440206


Station Type Date Time Source
KFAM Decoded METAR 2020/07/13 13:56 UTC NOAA

Farmington Airport, MO, United States (KFAM) 37-46N 090-26W
Jul 13, 2020 - 09:56 AM EDT / 2020.07.13 1356 UTC
Wind: Calm:0
Visibility: 10 mile(s):0
Sky conditions: clear
Temperature: 75.9 F (24.4 C)
Dew Point: 69.1 F (20.6 C)
Relative Humidity: 79%
Pressure (altimeter): 30.03 in. Hg (1016 hPa)
ob: KFAM 131356Z AUTO 00000KT 10SM CLR 24/21 A3003 RMK AO2 SLP167 T02440206
cycle: 14

Station Type Date Time Source
KFAM TAF UTC NOAA

Error!

Example: see airport list